createdAt,value
2018-06-14T00:01:53.838Z,18.80
2018-06-14T00:04:25.160Z,18.70
2018-06-14T00:06:56.616Z,18.80
2018-06-14T00:09:27.794Z,18.90
2018-06-14T00:11:59.610Z,18.90
2018-06-14T00:14:31.007Z,18.80
2018-06-14T00:17:02.120Z,18.70
2018-06-14T00:19:33.594Z,18.70
2018-06-14T00:22:05.601Z,18.80
2018-06-14T00:24:37.234Z,18.70
2018-06-14T00:27:08.543Z,18.70
2018-06-14T00:29:40.556Z,18.70
2018-06-14T00:32:11.805Z,18.70
2018-06-14T00:34:43.649Z,18.70
2018-06-14T00:37:14.842Z,18.80
2018-06-14T00:39:46.105Z,18.80
2018-06-14T00:42:17.635Z,18.80
2018-06-14T00:44:49.116Z,18.90
2018-06-14T00:47:21.242Z,18.70
2018-06-14T00:49:53.017Z,18.70
2018-06-14T00:52:24.374Z,18.70
2018-06-14T00:54:55.635Z,18.80
2018-06-14T00:57:33.102Z,18.70
2018-06-14T01:00:04.667Z,18.70
2018-06-14T01:02:36.004Z,18.50
2018-06-14T01:05:07.476Z,18.60
2018-06-14T01:07:38.931Z,18.70
2018-06-14T01:10:10.431Z,18.60
2018-06-14T01:12:41.919Z,18.50
2018-06-14T01:15:13.244Z,18.50
2018-06-14T01:17:44.856Z,18.40
2018-06-14T01:20:16.257Z,18.40
2018-06-14T01:22:47.731Z,18.30
2018-06-14T01:25:18.859Z,18.30
2018-06-14T01:27:50.414Z,18.30
2018-06-14T01:30:21.941Z,18.30
2018-06-14T01:32:53.316Z,18.30
2018-06-14T01:35:24.761Z,18.20
2018-06-14T01:38:11.841Z,18.20
2018-06-14T01:40:43.199Z,18.20
2018-06-14T01:43:14.491Z,18.20
2018-06-14T01:45:45.832Z,18.20
2018-06-14T01:48:17.797Z,18.20
2018-06-14T01:50:49.086Z,18.20
2018-06-14T01:53:20.858Z,18.10
2018-06-14T01:55:52.176Z,18.10
2018-06-14T02:00:54.229Z,18.10
2018-06-14T02:03:25.484Z,18.10
2018-06-14T02:05:56.847Z,18.10
2018-06-14T02:08:28.264Z,18.00
2018-06-14T02:10:59.643Z,17.80
2018-06-14T02:13:31.268Z,17.70
2018-06-14T02:16:03.203Z,17.70
2018-06-14T02:18:34.800Z,17.80
2018-06-14T02:21:06.433Z,17.60
2018-06-14T02:23:38.077Z,17.60
2018-06-14T02:26:09.415Z,17.60
2018-06-14T02:28:40.927Z,17.50
2018-06-14T02:31:12.155Z,17.50
2018-06-14T02:33:43.360Z,17.50
2018-06-14T02:36:14.836Z,17.40
2018-06-14T02:38:46.391Z,17.50
2018-06-14T02:41:17.870Z,17.50
2018-06-14T02:43:49.261Z,17.40
2018-06-14T02:46:20.740Z,17.30
2018-06-14T02:48:51.803Z,17.30
2018-06-14T02:51:23.621Z,17.40
2018-06-14T02:53:55.715Z,17.20
2018-06-14T02:56:27.247Z,17.10
2018-06-14T02:58:58.612Z,17.20
2018-06-14T03:01:30.065Z,17.20
2018-06-14T03:04:01.528Z,17.20
2018-06-14T03:06:32.976Z,17.10
2018-06-14T03:09:04.999Z,17.00
2018-06-14T03:11:36.237Z,17.10
2018-06-14T03:14:07.542Z,17.10
2018-06-14T03:16:39.412Z,17.10
2018-06-14T03:19:10.657Z,17.10
2018-06-14T03:21:42.047Z,17.10
2018-06-14T03:24:13.329Z,17.00
2018-06-14T03:26:44.712Z,16.90
2018-06-14T03:29:16.126Z,16.80
2018-06-14T03:31:47.744Z,16.90
2018-06-14T03:34:19.035Z,16.80
2018-06-14T03:36:50.520Z,16.80
2018-06-14T03:39:21.849Z,16.90
2018-06-14T03:41:53.892Z,16.80
2018-06-14T03:44:25.420Z,16.80
2018-06-14T03:46:56.791Z,16.80
2018-06-14T03:49:28.151Z,16.80
2018-06-14T03:51:59.557Z,16.70
2018-06-14T03:54:30.774Z,16.80
2018-06-14T03:57:01.891Z,16.80
2018-06-14T03:59:33.769Z,16.70
2018-06-14T04:04:36.295Z,16.70
2018-06-14T04:07:07.703Z,16.60
2018-06-14T04:09:39.000Z,16.70
2018-06-14T04:12:10.471Z,16.80
2018-06-14T04:14:41.929Z,16.60
2018-06-14T04:17:13.268Z,16.70
2018-06-14T04:19:44.420Z,16.70
2018-06-14T04:22:15.726Z,16.50
2018-06-14T04:24:47.201Z,16.50
2018-06-14T04:29:50.682Z,16.40
2018-06-14T04:32:22.060Z,16.40
2018-06-14T04:34:53.311Z,16.50
2018-06-14T04:37:24.717Z,16.50
2018-06-14T04:39:56.463Z,16.50
2018-06-14T04:42:28.287Z,16.50
2018-06-14T04:44:59.531Z,16.50
2018-06-14T04:47:30.784Z,16.60
2018-06-14T04:50:02.642Z,16.50
2018-06-14T04:52:34.459Z,16.30
2018-06-14T04:55:06.111Z,16.30
2018-06-14T04:57:37.664Z,16.30
2018-06-14T05:00:10.320Z,16.40
2018-06-14T05:05:13.229Z,16.40
2018-06-14T05:07:45.020Z,16.30
2018-06-14T05:10:16.772Z,16.40
2018-06-14T05:12:48.336Z,16.40
2018-06-14T05:15:20.572Z,16.50
2018-06-14T05:17:51.936Z,16.40
2018-06-14T05:20:23.151Z,16.30
2018-06-14T05:22:54.701Z,16.40
2018-06-14T05:25:26.636Z,16.30
2018-06-14T05:27:58.413Z,16.30
2018-06-14T05:30:29.646Z,16.30
2018-06-14T05:33:00.639Z,16.30
2018-06-14T05:35:32.187Z,16.30
2018-06-14T05:38:03.700Z,16.30
2018-06-14T05:40:35.508Z,16.40
2018-06-14T05:43:06.956Z,16.30
2018-06-14T05:45:38.431Z,16.30
2018-06-14T05:48:09.692Z,16.30
2018-06-14T05:50:41.096Z,16.30
2018-06-14T05:53:12.599Z,16.30
2018-06-14T05:55:44.272Z,16.40
2018-06-14T05:58:15.665Z,16.30
2018-06-14T06:00:47.105Z,16.40
2018-06-14T06:03:18.430Z,16.30
2018-06-14T06:05:50.362Z,16.40
2018-06-14T06:08:21.703Z,16.30
2018-06-14T06:10:52.921Z,16.30
2018-06-14T06:13:24.283Z,16.30
2018-06-14T06:15:55.631Z,16.20
2018-06-14T06:18:26.870Z,16.30
2018-06-14T06:20:58.399Z,16.30
2018-06-14T06:23:30.033Z,16.30
2018-06-14T06:26:01.451Z,16.20
2018-06-14T06:28:33.192Z,16.30
2018-06-14T06:31:04.641Z,16.20
2018-06-14T06:33:36.114Z,16.20
2018-06-14T06:36:07.875Z,16.20
2018-06-14T06:38:39.326Z,16.30
2018-06-14T06:41:10.675Z,16.30
2018-06-14T06:43:41.917Z,16.30
2018-06-14T06:46:13.724Z,16.30
2018-06-14T06:48:45.244Z,16.30
2018-06-14T06:51:16.862Z,16.30
2018-06-14T06:53:48.311Z,16.30
2018-06-14T06:56:19.668Z,16.30
2018-06-14T06:58:51.156Z,16.30
2018-06-14T07:01:22.559Z,16.30
2018-06-14T07:03:54.555Z,16.40
2018-06-14T07:06:25.880Z,16.40
2018-06-14T07:08:57.510Z,16.40
2018-06-14T07:11:28.838Z,16.50
2018-06-14T07:14:00.019Z,16.50
2018-06-14T07:16:31.779Z,16.40
2018-06-14T07:19:02.956Z,16.40
2018-06-14T07:21:35.628Z,16.50
2018-06-14T07:24:07.052Z,16.40
2018-06-14T07:26:39.668Z,16.40
2018-06-14T07:29:11.031Z,16.40
2018-06-14T07:31:42.191Z,16.40
2018-06-14T07:34:13.364Z,16.40
2018-06-14T07:36:44.792Z,16.50
2018-06-14T07:39:16.206Z,16.40
2018-06-14T07:41:47.424Z,16.50
2018-06-14T07:44:18.950Z,16.50
2018-06-14T07:46:50.211Z,16.60
2018-06-14T07:49:22.193Z,16.50
2018-06-14T07:51:53.555Z,16.60
2018-06-14T07:54:25.396Z,16.60
2018-06-14T07:56:56.812Z,16.60
2018-06-14T07:59:28.005Z,16.60
2018-06-14T08:01:59.324Z,16.60
2018-06-14T08:04:30.834Z,16.60
2018-06-14T08:07:02.157Z,16.60
2018-06-14T08:09:33.770Z,16.60
2018-06-14T08:12:05.706Z,16.60
2018-06-14T08:14:37.508Z,16.60
2018-06-14T08:17:08.973Z,16.60
2018-06-14T08:22:10.906Z,16.70
2018-06-14T08:24:42.329Z,16.70
2018-06-14T08:27:13.602Z,16.80
2018-06-14T08:29:45.003Z,16.70
2018-06-14T08:32:16.519Z,16.70
2018-06-14T08:34:47.795Z,16.70
2018-06-14T08:37:20.025Z,16.70
2018-06-14T08:39:51.534Z,16.70
2018-06-14T08:42:22.757Z,16.80
2018-06-14T08:44:54.162Z,16.80
2018-06-14T08:47:25.711Z,16.90
2018-06-14T08:49:57.056Z,17.00
2018-06-14T08:52:28.450Z,16.90
2018-06-14T08:54:59.943Z,17.00
2018-06-14T08:57:34.000Z,17.00
2018-06-14T09:00:05.396Z,17.00
2018-06-14T09:02:36.508Z,17.10
2018-06-14T09:05:08.449Z,17.00
2018-06-14T09:07:39.941Z,17.00
2018-06-14T09:10:11.377Z,17.00
2018-06-14T09:12:42.915Z,17.10
2018-06-14T09:15:14.047Z,17.10
2018-06-14T09:17:45.514Z,17.10
2018-06-14T09:20:17.357Z,17.20
2018-06-14T09:22:49.095Z,17.20
2018-06-14T09:25:20.464Z,17.20
2018-06-14T09:27:51.742Z,17.20
2018-06-14T09:30:23.058Z,17.20
2018-06-14T09:32:54.196Z,17.20
2018-06-14T09:35:26.563Z,17.20
2018-06-14T09:37:57.957Z,17.30
2018-06-14T09:40:29.246Z,17.30
2018-06-14T09:43:00.683Z,17.20
2018-06-14T09:45:32.195Z,17.30
2018-06-14T09:48:03.523Z,17.40
2018-06-14T09:50:34.693Z,17.40
2018-06-14T09:53:07.079Z,17.40
2018-06-14T09:55:38.521Z,17.50
2018-06-14T09:58:10.373Z,17.40
2018-06-14T10:00:42.118Z,17.50
2018-06-14T10:03:15.024Z,17.50
2018-06-14T10:08:19.126Z,17.60
2018-06-14T10:10:50.822Z,17.70
2018-06-14T10:13:22.313Z,17.80
2018-06-14T10:15:53.743Z,17.90
2018-06-14T10:18:27.421Z,17.90
2018-06-14T10:20:58.549Z,17.90
2018-06-14T10:23:29.656Z,17.90
2018-06-14T10:26:01.242Z,17.80
2018-06-14T10:28:32.786Z,17.90
2018-06-14T10:31:04.151Z,17.90
2018-06-14T10:33:35.374Z,17.80
2018-06-14T10:36:07.908Z,17.80
2018-06-14T10:38:39.497Z,17.80
2018-06-14T10:41:11.139Z,17.90
2018-06-14T10:43:42.591Z,17.90
2018-06-14T10:46:13.864Z,17.80
2018-06-14T10:48:45.181Z,17.80
2018-06-14T10:51:16.647Z,17.80
2018-06-14T10:53:48.332Z,17.80
2018-06-14T10:56:19.563Z,17.80
2018-06-14T10:58:52.041Z,17.80
2018-06-14T11:01:23.704Z,17.90
2018-06-14T11:03:55.834Z,17.90
2018-06-14T11:06:27.424Z,17.90
2018-06-14T11:08:59.672Z,17.90
2018-06-14T11:11:31.059Z,17.90
2018-06-14T11:14:02.341Z,17.90
2018-06-14T11:16:33.985Z,17.90
2018-06-14T11:19:05.094Z,17.90
2018-06-14T11:21:36.308Z,17.90
2018-06-14T11:24:07.643Z,18.00
2018-06-14T11:26:39.338Z,18.00
2018-06-14T11:29:11.292Z,18.10
2018-06-14T11:31:42.913Z,18.10
2018-06-14T11:34:14.379Z,18.10
2018-06-14T11:36:45.665Z,18.20
2018-06-14T11:39:17.254Z,18.20
2018-06-14T11:41:48.982Z,18.20
2018-06-14T11:44:20.167Z,18.20
2018-06-14T11:46:51.543Z,18.30
2018-06-14T11:49:22.940Z,18.30
2018-06-14T11:51:54.850Z,18.40
2018-06-14T11:54:26.695Z,18.40
2018-06-14T11:56:58.135Z,18.40
2018-06-14T11:59:29.427Z,18.50
2018-06-14T12:02:01.188Z,18.40
2018-06-14T12:04:32.713Z,18.50
2018-06-14T12:07:04.028Z,18.50
2018-06-14T12:09:35.301Z,18.50
2018-06-14T12:12:06.660Z,18.60
2018-06-14T12:14:37.896Z,18.70
2018-06-14T12:17:09.631Z,18.70
2018-06-14T12:19:41.040Z,18.80
2018-06-14T12:22:12.311Z,18.80
2018-06-14T12:24:44.134Z,18.80
2018-06-14T12:27:15.444Z,18.80
2018-06-14T12:29:46.933Z,18.80
2018-06-14T12:32:19.216Z,18.80
2018-06-14T12:34:51.092Z,18.80
2018-06-14T12:37:22.510Z,18.80
2018-06-14T12:39:53.672Z,18.90
2018-06-14T12:42:25.632Z,18.90
2018-06-14T12:44:57.225Z,18.90
2018-06-14T12:47:29.183Z,19.00
2018-06-14T12:50:01.368Z,19.00
2018-06-14T12:52:32.835Z,19.00
2018-06-14T12:55:04.071Z,19.00
2018-06-14T12:57:35.742Z,19.00
2018-06-14T13:00:08.186Z,19.10
2018-06-14T13:02:39.384Z,19.10
2018-06-14T13:05:11.575Z,19.20
2018-06-14T13:07:43.342Z,19.10
2018-06-14T13:10:14.790Z,19.20
2018-06-14T13:12:46.244Z,19.20
2018-06-14T13:15:17.604Z,19.20
2018-06-14T13:17:48.975Z,19.20
2018-06-14T13:20:20.382Z,19.30
2018-06-14T13:22:51.809Z,19.30
2018-06-14T13:25:23.336Z,19.30
2018-06-14T13:27:54.783Z,19.30
2018-06-14T13:30:26.210Z,19.40
2018-06-14T13:32:57.433Z,19.30
2018-06-14T13:35:28.910Z,19.30
2018-06-14T13:38:00.431Z,19.30
2018-06-14T13:40:32.128Z,19.40
2018-06-14T13:43:03.547Z,19.30
2018-06-14T13:45:34.871Z,19.30
2018-06-14T13:48:06.229Z,19.30
2018-06-14T13:50:37.467Z,19.40
2018-06-14T13:53:09.931Z,19.40
2018-06-14T13:55:41.540Z,19.40
2018-06-14T13:58:12.802Z,19.40
2018-06-14T14:00:44.132Z,19.40
2018-06-14T14:03:15.772Z,19.40
2018-06-14T14:05:47.189Z,19.50
2018-06-14T14:08:18.659Z,19.40
2018-06-14T14:10:50.102Z,19.50
2018-06-14T14:13:21.482Z,19.50
2018-06-14T14:15:52.543Z,19.50
2018-06-14T14:18:24.056Z,19.50
2018-06-14T14:20:56.619Z,19.50
2018-06-14T14:23:28.451Z,19.50
2018-06-14T14:26:00.041Z,19.50
2018-06-14T14:28:32.920Z,19.50
2018-06-14T14:31:04.476Z,19.40
2018-06-14T14:33:35.968Z,19.40
2018-06-14T14:36:07.840Z,19.50
2018-06-14T14:38:39.472Z,19.50
2018-06-14T14:41:10.838Z,19.50
2018-06-14T14:43:42.221Z,19.50
2018-06-14T14:46:14.401Z,19.50
2018-06-14T14:48:45.605Z,19.50
2018-06-14T14:51:16.861Z,19.50
2018-06-14T14:53:49.683Z,19.40
2018-06-14T14:56:21.001Z,19.50
2018-06-14T14:58:52.973Z,19.50
2018-06-14T15:01:24.273Z,19.50
2018-06-14T15:03:55.632Z,19.40
2018-06-14T15:06:26.993Z,19.50
2018-06-14T15:08:58.566Z,19.50
2018-06-14T15:11:29.834Z,19.50
2018-06-14T15:14:01.647Z,19.50
2018-06-14T15:16:32.984Z,19.50
2018-06-14T15:21:36.088Z,19.40
2018-06-14T15:24:07.686Z,19.50
2018-06-14T15:26:39.567Z,19.50
2018-06-14T15:29:10.988Z,19.60
2018-06-14T15:31:42.207Z,19.60
2018-06-14T15:34:14.034Z,19.60
2018-06-14T15:36:45.435Z,19.60
2018-06-14T15:39:17.333Z,19.70
2018-06-14T15:41:48.922Z,19.70
2018-06-14T15:44:20.258Z,19.70
2018-06-14T15:46:51.596Z,19.70
2018-06-14T15:49:23.211Z,19.80
2018-06-14T15:51:54.887Z,19.90
2018-06-14T15:54:26.757Z,19.80
2018-06-14T15:56:58.199Z,19.80
2018-06-14T15:59:29.761Z,19.80
2018-06-14T16:02:01.162Z,19.80
2018-06-14T16:04:32.774Z,19.90
2018-06-14T16:07:04.234Z,19.90
2018-06-14T16:09:35.483Z,19.90
2018-06-14T16:12:07.469Z,19.90
2018-06-14T16:14:39.116Z,19.80
2018-06-14T16:17:10.608Z,19.80
2018-06-14T16:19:42.016Z,19.80
2018-06-14T16:22:13.509Z,19.70
2018-06-14T16:24:44.950Z,19.80
2018-06-14T16:27:16.258Z,19.80
2018-06-14T16:29:47.688Z,19.80
2018-06-14T16:32:19.184Z,19.80
2018-06-14T16:34:50.815Z,19.80
2018-06-14T16:37:22.150Z,19.90
2018-06-14T16:39:53.464Z,19.80
2018-06-14T16:42:24.847Z,19.80
2018-06-14T16:44:56.621Z,19.80
2018-06-14T16:47:28.881Z,19.80
2018-06-14T16:50:00.599Z,19.70
2018-06-14T16:52:32.197Z,19.70
2018-06-14T16:55:03.473Z,19.70
2018-06-14T16:57:34.859Z,19.70
2018-06-14T17:00:07.280Z,19.60
2018-06-14T17:02:38.428Z,19.60
2018-06-14T17:05:09.881Z,19.60
2018-06-14T17:07:41.199Z,19.60
2018-06-14T17:10:12.663Z,19.70
2018-06-14T17:12:44.129Z,19.70
2018-06-14T17:15:15.542Z,19.70
2018-06-14T17:17:47.067Z,19.60
2018-06-14T17:20:18.355Z,19.70
2018-06-14T17:22:49.892Z,19.70
2018-06-14T17:25:21.286Z,19.60
2018-06-14T17:27:52.744Z,19.60
2018-06-14T17:30:24.587Z,19.60
2018-06-14T17:32:55.727Z,19.60
2018-06-14T17:38:01.232Z,19.70
2018-06-14T17:40:32.463Z,19.60
2018-06-14T17:43:05.177Z,19.60
2018-06-14T17:45:36.737Z,19.60
2018-06-14T17:48:08.101Z,19.60
2018-06-14T17:50:39.567Z,19.50
2018-06-14T17:53:11.035Z,19.40
2018-06-14T17:55:42.569Z,19.50
2018-06-14T17:58:14.313Z,19.40
2018-06-14T18:00:45.765Z,19.40
2018-06-14T18:03:17.167Z,19.40
2018-06-14T18:05:49.342Z,19.40
2018-06-14T18:08:20.930Z,19.50
2018-06-14T18:10:52.408Z,19.40
2018-06-14T18:13:24.449Z,19.40
2018-06-14T18:15:55.920Z,19.40
2018-06-14T18:18:27.203Z,19.40
2018-06-14T18:20:58.936Z,19.40
2018-06-14T18:23:30.588Z,19.40
2018-06-14T18:26:02.837Z,19.30
2018-06-14T18:28:34.181Z,19.30
2018-06-14T18:31:05.422Z,19.40
2018-06-14T18:33:37.112Z,19.50
2018-06-14T18:36:08.884Z,19.50
2018-06-14T18:38:40.352Z,19.40
2018-06-14T18:41:12.315Z,19.50
2018-06-14T18:43:43.635Z,19.50
2018-06-14T18:46:14.864Z,19.40
2018-06-14T18:48:46.485Z,19.40
2018-06-14T18:51:18.072Z,19.40
2018-06-14T18:53:49.753Z,19.30
2018-06-14T18:56:21.248Z,19.30
2018-06-14T18:58:53.112Z,19.20
2018-06-14T19:01:25.199Z,19.10
2018-06-14T19:03:56.748Z,19.10
2018-06-14T19:06:28.147Z,19.20
2018-06-14T19:08:59.414Z,19.20
2018-06-14T19:11:38.743Z,19.20
2018-06-14T19:14:10.283Z,19.20
2018-06-14T19:16:41.620Z,19.20
2018-06-14T19:19:12.955Z,19.20
2018-06-14T19:21:44.326Z,19.20
2018-06-14T19:24:16.973Z,19.20
2018-06-14T19:26:49.128Z,19.10
2018-06-14T19:29:20.565Z,19.20
2018-06-14T19:34:23.291Z,19.30
2018-06-14T19:36:55.694Z,19.30
2018-06-14T19:39:27.611Z,19.30
2018-06-14T19:41:59.364Z,19.30
2018-06-14T19:44:30.646Z,19.40
2018-06-14T19:47:01.868Z,19.40
2018-06-14T19:49:33.281Z,19.30
2018-06-14T19:52:04.987Z,19.30
2018-06-14T19:54:36.421Z,19.30
2018-06-14T19:57:07.846Z,19.20
2018-06-14T19:59:39.340Z,19.20
2018-06-14T20:02:10.911Z,19.10
2018-06-14T20:04:42.332Z,19.00
2018-06-14T20:07:13.756Z,19.00
2018-06-14T20:09:44.947Z,18.90
2018-06-14T20:12:16.332Z,18.90
2018-06-14T20:14:47.646Z,18.90
2018-06-14T20:17:19.106Z,18.80
2018-06-14T20:19:50.868Z,18.80
2018-06-14T20:22:22.393Z,18.80
2018-06-14T20:24:53.923Z,18.80
2018-06-14T20:27:25.412Z,18.80
2018-06-14T20:29:56.957Z,18.70
2018-06-14T20:32:28.497Z,18.70
2018-06-14T20:35:00.080Z,18.70
2018-06-14T20:37:31.633Z,18.80
2018-06-14T20:40:03.465Z,18.80
2018-06-14T20:42:35.206Z,18.70
2018-06-14T20:45:06.628Z,18.70
2018-06-14T20:47:37.915Z,18.70
2018-06-14T20:50:09.718Z,18.60
2018-06-14T20:52:41.831Z,18.60
2018-06-14T20:55:13.337Z,18.60
2018-06-14T20:57:44.964Z,18.60
2018-06-14T21:00:17.382Z,18.60
2018-06-14T21:02:49.048Z,18.60
2018-06-14T21:05:20.671Z,18.50
2018-06-14T21:07:52.181Z,18.50
2018-06-14T21:10:24.076Z,18.60
2018-06-14T21:12:55.477Z,18.50
2018-06-14T21:15:26.853Z,18.50
2018-06-14T21:17:58.238Z,18.50
2018-06-14T21:20:30.006Z,18.60
2018-06-14T21:23:01.305Z,18.50
2018-06-14T21:25:32.948Z,18.50
2018-06-14T21:28:04.994Z,18.50
2018-06-14T21:30:36.942Z,18.50
2018-06-14T21:33:08.413Z,18.50
2018-06-14T21:35:39.700Z,18.40
2018-06-14T21:38:11.128Z,18.40
2018-06-14T21:40:42.559Z,18.40
2018-06-14T21:43:14.399Z,18.40
2018-06-14T21:45:45.603Z,18.30
2018-06-14T21:48:16.834Z,18.30
2018-06-14T21:50:48.132Z,18.30
2018-06-14T21:53:19.467Z,18.20
2018-06-14T21:55:50.999Z,18.30
2018-06-14T21:58:22.447Z,18.20
2018-06-14T22:00:53.796Z,18.10
2018-06-14T22:03:30.284Z,18.10
2018-06-14T22:06:01.772Z,18.10
2018-06-14T22:08:33.324Z,18.00
2018-06-14T22:11:06.157Z,18.00
2018-06-14T22:13:37.452Z,17.90
2018-06-14T22:16:09.340Z,17.90
2018-06-14T22:18:40.745Z,17.90
2018-06-14T22:21:12.115Z,17.90
2018-06-14T22:23:43.858Z,17.80
2018-06-14T22:26:15.501Z,17.70
2018-06-14T22:28:47.255Z,17.70
2018-06-14T22:31:18.580Z,17.70
2018-06-14T22:34:05.528Z,17.70
2018-06-14T22:36:37.092Z,17.60
2018-06-14T22:39:09.135Z,17.50
2018-06-14T22:41:40.930Z,17.50
2018-06-14T22:44:12.319Z,17.50
2018-06-14T22:46:44.388Z,17.50
2018-06-14T22:49:15.629Z,17.50
2018-06-14T22:53:02.251Z,17.40
2018-06-14T22:55:33.647Z,17.40
2018-06-14T22:58:04.924Z,17.30
2018-06-14T23:01:52.636Z,17.30
2018-06-14T23:04:27.936Z,17.30
2018-06-14T23:06:59.311Z,17.30
2018-06-14T23:10:44.959Z,17.20
2018-06-14T23:13:17.584Z,17.20
2018-06-14T23:15:49.743Z,17.10
2018-06-14T23:18:21.192Z,17.10
2018-06-14T23:20:52.524Z,17.10
2018-06-14T23:23:24.730Z,17.10
2018-06-14T23:25:56.103Z,17.10
2018-06-14T23:28:27.761Z,17.00
2018-06-14T23:30:59.923Z,17.00
2018-06-14T23:33:31.319Z,17.00
2018-06-14T23:36:03.281Z,17.00
2018-06-14T23:38:34.915Z,17.00
2018-06-14T23:41:06.901Z,17.00
2018-06-14T23:43:38.303Z,16.90
2018-06-14T23:46:09.689Z,16.80
2018-06-14T23:48:40.930Z,16.80
2018-06-14T23:51:13.089Z,16.90
2018-06-14T23:53:44.420Z,16.80
2018-06-14T23:56:15.697Z,16.80
2018-06-14T23:58:46.908Z,16.80
